sensor_id;sensor_type;location;lat;lon;timestamp;temperature;humidity
9564;DHT22;4820;50.870;4.702;2022-08-21T00:01:24;17.40;99.90
9564;DHT22;4820;50.870;4.702;2022-08-21T00:03:52;17.40;99.90
9564;DHT22;4820;50.870;4.702;2022-08-21T00:06:18;17.40;99.90
9564;DHT22;4820;50.870;4.702;2022-08-21T00:08:44;17.40;99.90
9564;DHT22;4820;50.870;4.702;2022-08-21T00:11:13;17.30;99.90
9564;DHT22;4820;50.870;4.702;2022-08-21T00:13:41;17.40;99.90
9564;DHT22;4820;50.870;4.702;2022-08-21T00:16:07;17.30;99.90
9564;DHT22;4820;50.870;4.702;2022-08-21T00:18:33;17.30;99.90
9564;DHT22;4820;50.870;4.702;2022-08-21T00:20:58;17.30;99.90
9564;DHT22;4820;50.870;4.702;2022-08-21T00:23:24;17.30;99.90
9564;DHT22;4820;50.870;4.702;2022-08-21T00:25:51;17.20;99.90
9564;DHT22;4820;50.870;4.702;2022-08-21T00:28:19;17.20;99.90
9564;DHT22;4820;50.870;4.702;2022-08-21T00:30:44;17.20;99.90
9564;DHT22;4820;50.870;4.702;2022-08-21T00:33:11;17.10;99.90
9564;DHT22;4820;50.870;4.702;2022-08-21T00:35:40;17.00;99.90
9564;DHT22;4820;50.870;4.702;2022-08-21T00:38:07;17.10;99.90
9564;DHT22;4820;50.870;4.702;2022-08-21T00:40:50;17.00;99.90
9564;DHT22;4820;50.870;4.702;2022-08-21T00:43:21;17.00;99.90
9564;DHT22;4820;50.870;4.702;2022-08-21T00:45:48;17.00;99.90
9564;DHT22;4820;50.870;4.702;2022-08-21T00:48:15;17.00;99.90
9564;DHT22;4820;50.870;4.702;2022-08-21T00:50:47;17.00;99.90
9564;DHT22;4820;50.870;4.702;2022-08-21T00:53:14;17.00;99.90
9564;DHT22;4820;50.870;4.702;2022-08-21T00:55:41;17.00;99.90
9564;DHT22;4820;50.870;4.702;2022-08-21T00:58:09;17.00;99.90
9564;DHT22;4820;50.870;4.702;2022-08-21T01:00:40;17.00;99.90
9564;DHT22;4820;50.870;4.702;2022-08-21T01:03:10;16.90;99.90
9564;DHT22;4820;50.870;4.702;2022-08-21T01:05:37;16.90;99.90
9564;DHT22;4820;50.870;4.702;2022-08-21T01:08:04;16.90;99.90
9564;DHT22;4820;50.870;4.702;2022-08-21T01:10:35;16.90;99.90
9564;DHT22;4820;50.870;4.702;2022-08-21T01:13:02;16.80;99.90
9564;DHT22;4820;50.870;4.702;2022-08-21T01:15:33;16.80;99.90
9564;DHT22;4820;50.870;4.702;2022-08-21T01:18:00;16.80;99.90
9564;DHT22;4820;50.870;4.702;2022-08-21T01:20:27;16.80;99.90
9564;DHT22;4820;50.870;4.702;2022-08-21T01:22:53;16.80;99.90
9564;DHT22;4820;50.870;4.702;2022-08-21T01:25:19;16.70;99.90
9564;DHT22;4820;50.870;4.702;2022-08-21T01:27:47;16.80;99.90
9564;DHT22;4820;50.870;4.702;2022-08-21T01:30:18;16.70;99.90
9564;DHT22;4820;50.870;4.702;2022-08-21T01:32:47;16.70;99.90
9564;DHT22;4820;50.870;4.702;2022-08-21T01:35:15;16.70;99.90
9564;DHT22;4820;50.870;4.702;2022-08-21T01:37:41;16.70;99.90
9564;DHT22;4820;50.870;4.702;2022-08-21T01:40:08;16.70;99.90
9564;DHT22;4820;50.870;4.702;2022-08-21T01:42:34;16.70;99.90
9564;DHT22;4820;50.870;4.702;2022-08-21T01:45:00;16.60;99.90
9564;DHT22;4820;50.870;4.702;2022-08-21T01:47:26;16.60;99.90
9564;DHT22;4820;50.870;4.702;2022-08-21T01:49:52;16.60;99.90
9564;DHT22;4820;50.870;4.702;2022-08-21T01:52:18;16.60;99.90
9564;DHT22;4820;50.870;4.702;2022-08-21T01:54:45;16.50;99.90
9564;DHT22;4820;50.870;4.702;2022-08-21T01:57:12;16.50;99.90
9564;DHT22;4820;50.870;4.702;2022-08-21T01:59:39;16.40;99.90
9564;DHT22;4820;50.870;4.702;2022-08-21T02:02:05;16.30;99.90
9564;DHT22;4820;50.870;4.702;2022-08-21T02:04:31;16.30;99.90
9564;DHT22;4820;50.870;4.702;2022-08-21T02:06:59;16.30;99.90
9564;DHT22;4820;50.870;4.702;2022-08-21T02:09:25;16.20;99.90
9564;DHT22;4820;50.870;4.702;2022-08-21T02:11:51;16.20;99.90
9564;DHT22;4820;50.870;4.702;2022-08-21T02:14:17;16.20;99.90
9564;DHT22;4820;50.870;4.702;2022-08-21T02:16:44;16.20;99.90
9564;DHT22;4820;50.870;4.702;2022-08-21T02:19:11;16.20;99.90
9564;DHT22;4820;50.870;4.702;2022-08-21T02:21:37;16.20;99.90
9564;DHT22;4820;50.870;4.702;2022-08-21T02:24:05;16.20;99.90
9564;DHT22;4820;50.870;4.702;2022-08-21T02:26:31;16.20;99.90
9564;DHT22;4820;50.870;4.702;2022-08-21T02:28:57;16.20;99.90
9564;DHT22;4820;50.870;4.702;2022-08-21T02:31:23;16.20;99.90
9564;DHT22;4820;50.870;4.702;2022-08-21T02:33:50;16.10;99.90
9564;DHT22;4820;50.870;4.702;2022-08-21T02:36:15;16.20;99.90
9564;DHT22;4820;50.870;4.702;2022-08-21T02:38:42;16.10;99.90
9564;DHT22;4820;50.870;4.702;2022-08-21T02:41:14;16.20;99.90
9564;DHT22;4820;50.870;4.702;2022-08-21T02:43:40;16.10;99.90
9564;DHT22;4820;50.870;4.702;2022-08-21T02:46:10;16.10;99.90
9564;DHT22;4820;50.870;4.702;2022-08-21T02:48:36;16.10;99.90
9564;DHT22;4820;50.870;4.702;2022-08-21T02:51:14;16.00;99.90
9564;DHT22;4820;50.870;4.702;2022-08-21T02:53:42;16.00;99.90
9564;DHT22;4820;50.870;4.702;2022-08-21T02:56:10;15.90;99.90
9564;DHT22;4820;50.870;4.702;2022-08-21T02:58:44;15.90;99.90
9564;DHT22;4820;50.870;4.702;2022-08-21T03:01:14;15.80;99.90
9564;DHT22;4820;50.870;4.702;2022-08-21T03:03:42;15.70;99.90
9564;DHT22;4820;50.870;4.702;2022-08-21T03:06:11;15.70;99.90
9564;DHT22;4820;50.870;4.702;2022-08-21T03:08:38;15.70;99.90
9564;DHT22;4820;50.870;4.702;2022-08-21T03:11:04;15.60;99.90
9564;DHT22;4820;50.870;4.702;2022-08-21T03:13:31;15.60;99.90
9564;DHT22;4820;50.870;4.702;2022-08-21T03:15:58;15.60;99.90
9564;DHT22;4820;50.870;4.702;2022-08-21T03:18:23;15.60;99.90
9564;DHT22;4820;50.870;4.702;2022-08-21T03:20:49;15.50;99.90
9564;DHT22;4820;50.870;4.702;2022-08-21T03:23:16;15.50;99.90
9564;DHT22;4820;50.870;4.702;2022-08-21T03:25:44;15.50;99.90
9564;DHT22;4820;50.870;4.702;2022-08-21T03:28:13;15.50;99.90
9564;DHT22;4820;50.870;4.702;2022-08-21T03:30:44;15.50;99.90
9564;DHT22;4820;50.870;4.702;2022-08-21T03:33:10;15.50;99.90
9564;DHT22;4820;50.870;4.702;2022-08-21T03:35:36;15.50;99.90
9564;DHT22;4820;50.870;4.702;2022-08-21T03:38:01;15.50;99.90
9564;DHT22;4820;50.870;4.702;2022-08-21T03:40:30;15.50;99.90
9564;DHT22;4820;50.870;4.702;2022-08-21T03:42:56;15.50;99.90
9564;DHT22;4820;50.870;4.702;2022-08-21T03:45:22;15.50;99.90
9564;DHT22;4820;50.870;4.702;2022-08-21T03:50:19;15.40;99.90
9564;DHT22;4820;50.870;4.702;2022-08-21T03:52:45;15.50;99.90
9564;DHT22;4820;50.870;4.702;2022-08-21T03:55:10;15.40;99.90
9564;DHT22;4820;50.870;4.702;2022-08-21T03:57:36;15.40;99.90
9564;DHT22;4820;50.870;4.702;2022-08-21T04:00:04;15.40;99.90
9564;DHT22;4820;50.870;4.702;2022-08-21T04:02:30;15.40;99.90
9564;DHT22;4820;50.870;4.702;2022-08-21T04:04:55;15.30;99.90
9564;DHT22;4820;50.870;4.702;2022-08-21T04:07:21;15.30;99.90
9564;DHT22;4820;50.870;4.702;2022-08-21T04:09:47;15.30;99.90
9564;DHT22;4820;50.870;4.702;2022-08-21T04:12:12;15.30;99.90
9564;DHT22;4820;50.870;4.702;2022-08-21T04:14:40;15.30;99.90
9564;DHT22;4820;50.870;4.702;2022-08-21T04:17:07;15.30;99.90
9564;DHT22;4820;50.870;4.702;2022-08-21T04:19:32;15.20;99.90
9564;DHT22;4820;50.870;4.702;2022-08-21T04:21:58;15.20;99.90
9564;DHT22;4820;50.870;4.702;2022-08-21T04:24:24;15.20;99.90
9564;DHT22;4820;50.870;4.702;2022-08-21T04:26:49;15.20;99.90
9564;DHT22;4820;50.870;4.702;2022-08-21T04:29:15;15.10;99.90
9564;DHT22;4820;50.870;4.702;2022-08-21T04:31:41;15.10;99.90
9564;DHT22;4820;50.870;4.702;2022-08-21T04:34:09;15.10;99.90
9564;DHT22;4820;50.870;4.702;2022-08-21T04:36:34;15.10;99.90
9564;DHT22;4820;50.870;4.702;2022-08-21T04:39:00;15.10;99.90
9564;DHT22;4820;50.870;4.702;2022-08-21T04:41:29;15.10;99.90
9564;DHT22;4820;50.870;4.702;2022-08-21T04:43:55;15.10;99.90
9564;DHT22;4820;50.870;4.702;2022-08-21T04:46:22;15.10;99.90
9564;DHT22;4820;50.870;4.702;2022-08-21T04:48:48;15.20;99.90
9564;DHT22;4820;50.870;4.702;2022-08-21T04:51:25;15.20;99.90
9564;DHT22;4820;50.870;4.702;2022-08-21T04:54:15;15.20;99.90
9564;DHT22;4820;50.870;4.702;2022-08-21T04:56:45;15.20;99.90
9564;DHT22;4820;50.870;4.702;2022-08-21T04:59:19;15.20;99.90
9564;DHT22;4820;50.870;4.702;2022-08-21T05:01:46;15.20;99.90
9564;DHT22;4820;50.870;4.702;2022-08-21T05:04:15;15.20;99.90
9564;DHT22;4820;50.870;4.702;2022-08-21T05:06:44;15.20;99.90
9564;DHT22;4820;50.870;4.702;2022-08-21T05:09:13;15.20;99.90
9564;DHT22;4820;50.870;4.702;2022-08-21T05:11:39;15.10;99.90
9564;DHT22;4820;50.870;4.702;2022-08-21T05:14:07;15.10;99.90
9564;DHT22;4820;50.870;4.702;2022-08-21T05:16:32;15.00;99.90
9564;DHT22;4820;50.870;4.702;2022-08-21T05:18:58;15.10;99.90
9564;DHT22;4820;50.870;4.702;2022-08-21T05:21:24;15.10;99.90
9564;DHT22;4820;50.870;4.702;2022-08-21T05:23:51;15.20;99.90
9564;DHT22;4820;50.870;4.702;2022-08-21T05:26:18;15.20;99.90
9564;DHT22;4820;50.870;4.702;2022-08-21T05:28:45;15.20;99.90
9564;DHT22;4820;50.870;4.702;2022-08-21T05:31:12;15.30;99.90
9564;DHT22;4820;50.870;4.702;2022-08-21T05:33:37;15.30;99.90
9564;DHT22;4820;50.870;4.702;2022-08-21T05:36:03;15.30;99.90
9564;DHT22;4820;50.870;4.702;2022-08-21T05:38:29;15.40;99.90
9564;DHT22;4820;50.870;4.702;2022-08-21T05:40:54;15.40;99.90
9564;DHT22;4820;50.870;4.702;2022-08-21T05:43:21;15.40;99.90
9564;DHT22;4820;50.870;4.702;2022-08-21T05:45:47;15.40;99.90
9564;DHT22;4820;50.870;4.702;2022-08-21T05:48:24;15.30;99.90
9564;DHT22;4820;50.870;4.702;2022-08-21T05:50:51;15.30;99.90
9564;DHT22;4820;50.870;4.702;2022-08-21T05:53:18;15.40;99.90
9564;DHT22;4820;50.870;4.702;2022-08-21T05:55:46;15.50;99.90
9564;DHT22;4820;50.870;4.702;2022-08-21T05:58:19;15.50;99.90
9564;DHT22;4820;50.870;4.702;2022-08-21T06:00:46;15.60;99.90
9564;DHT22;4820;50.870;4.702;2022-08-21T06:03:24;15.60;99.90
9564;DHT22;4820;50.870;4.702;2022-08-21T06:05:50;15.60;99.90
9564;DHT22;4820;50.870;4.702;2022-08-21T06:08:17;15.60;99.90
9564;DHT22;4820;50.870;4.702;2022-08-21T06:10:44;15.70;99.90
9564;DHT22;4820;50.870;4.702;2022-08-21T06:13:11;15.70;99.90
9564;DHT22;4820;50.870;4.702;2022-08-21T06:15:37;15.80;99.90
9564;DHT22;4820;50.870;4.702;2022-08-21T06:18:03;15.80;99.90
9564;DHT22;4820;50.870;4.702;2022-08-21T06:20:29;15.80;99.90
9564;DHT22;4820;50.870;4.702;2022-08-21T06:22:55;15.90;99.90
9564;DHT22;4820;50.870;4.702;2022-08-21T06:25:20;16.00;99.90
9564;DHT22;4820;50.870;4.702;2022-08-21T06:27:46;16.00;99.90
9564;DHT22;4820;50.870;4.702;2022-08-21T06:30:12;16.10;99.90
9564;DHT22;4820;50.870;4.702;2022-08-21T06:32:38;16.10;99.90
9564;DHT22;4820;50.870;4.702;2022-08-21T06:35:05;16.20;99.90
9564;DHT22;4820;50.870;4.702;2022-08-21T06:37:32;16.20;99.90
9564;DHT22;4820;50.870;4.702;2022-08-21T06:39:58;16.30;99.90
9564;DHT22;4820;50.870;4.702;2022-08-21T06:42:24;16.40;99.90
9564;DHT22;4820;50.870;4.702;2022-08-21T06:44:50;16.40;99.90
9564;DHT22;4820;50.870;4.702;2022-08-21T06:47:16;16.50;99.90
9564;DHT22;4820;50.870;4.702;2022-08-21T06:49:42;16.60;99.90
9564;DHT22;4820;50.870;4.702;2022-08-21T06:52:12;16.60;99.90
9564;DHT22;4820;50.870;4.702;2022-08-21T06:54:41;16.60;99.90
9564;DHT22;4820;50.870;4.702;2022-08-21T06:57:06;16.70;99.90
9564;DHT22;4820;50.870;4.702;2022-08-21T06:59:33;16.80;99.90
9564;DHT22;4820;50.870;4.702;2022-08-21T07:01:59;16.90;99.90
9564;DHT22;4820;50.870;4.702;2022-08-21T07:04:26;16.90;99.90
9564;DHT22;4820;50.870;4.702;2022-08-21T07:06:52;16.90;99.90
9564;DHT22;4820;50.870;4.702;2022-08-21T07:09:17;16.90;99.90
9564;DHT22;4820;50.870;4.702;2022-08-21T07:11:46;17.00;99.90
9564;DHT22;4820;50.870;4.702;2022-08-21T07:14:13;17.00;99.90
9564;DHT22;4820;50.870;4.702;2022-08-21T07:16:39;17.10;99.90
9564;DHT22;4820;50.870;4.702;2022-08-21T07:19:04;17.20;99.90
9564;DHT22;4820;50.870;4.702;2022-08-21T07:21:30;17.30;99.90
9564;DHT22;4820;50.870;4.702;2022-08-21T07:23:56;17.30;99.90
9564;DHT22;4820;50.870;4.702;2022-08-21T07:26:24;17.40;99.90
9564;DHT22;4820;50.870;4.702;2022-08-21T07:28:50;17.40;99.90
9564;DHT22;4820;50.870;4.702;2022-08-21T07:31:18;17.50;99.90
9564;DHT22;4820;50.870;4.702;2022-08-21T07:33:44;17.60;99.90
9564;DHT22;4820;50.870;4.702;2022-08-21T07:36:11;17.70;99.90
9564;DHT22;4820;50.870;4.702;2022-08-21T07:38:36;17.90;99.90
9564;DHT22;4820;50.870;4.702;2022-08-21T07:41:20;18.00;99.90
9564;DHT22;4820;50.870;4.702;2022-08-21T07:43:46;18.10;99.90
9564;DHT22;4820;50.870;4.702;2022-08-21T07:46:14;18.20;99.90
9564;DHT22;4820;50.870;4.702;2022-08-21T07:48:40;18.30;99.90
9564;DHT22;4820;50.870;4.702;2022-08-21T07:51:09;18.40;99.90
9564;DHT22;4820;50.870;4.702;2022-08-21T07:53:36;18.40;99.90
9564;DHT22;4820;50.870;4.702;2022-08-21T07:56:03;18.50;99.90
9564;DHT22;4820;50.870;4.702;2022-08-21T07:58:30;18.50;99.90
9564;DHT22;4820;50.870;4.702;2022-08-21T08:00:56;18.60;99.90
9564;DHT22;4820;50.870;4.702;2022-08-21T08:03:21;18.70;99.90
9564;DHT22;4820;50.870;4.702;2022-08-21T08:05:48;18.80;99.90
9564;DHT22;4820;50.870;4.702;2022-08-21T08:08:14;19.00;99.90
9564;DHT22;4820;50.870;4.702;2022-08-21T08:10:40;19.10;99.90
9564;DHT22;4820;50.870;4.702;2022-08-21T08:13:07;19.20;99.90
9564;DHT22;4820;50.870;4.702;2022-08-21T08:15:33;19.20;99.90
9564;DHT22;4820;50.870;4.702;2022-08-21T08:17:59;19.30;99.90
9564;DHT22;4820;50.870;4.702;2022-08-21T08:20:25;19.50;99.90
9564;DHT22;4820;50.870;4.702;2022-08-21T08:22:53;19.60;99.90
9564;DHT22;4820;50.870;4.702;2022-08-21T08:25:21;19.70;99.90
9564;DHT22;4820;50.870;4.702;2022-08-21T08:27:48;19.80;99.90
9564;DHT22;4820;50.870;4.702;2022-08-21T08:30:16;20.00;99.90
9564;DHT22;4820;50.870;4.702;2022-08-21T08:32:43;20.10;99.90
9564;DHT22;4820;50.870;4.702;2022-08-21T08:35:10;20.20;99.90
9564;DHT22;4820;50.870;4.702;2022-08-21T08:37:37;20.20;99.90
9564;DHT22;4820;50.870;4.702;2022-08-21T08:40:09;20.20;99.90
9564;DHT22;4820;50.870;4.702;2022-08-21T08:42:36;20.20;99.90
9564;DHT22;4820;50.870;4.702;2022-08-21T08:45:12;20.30;99.90
9564;DHT22;4820;50.870;4.702;2022-08-21T08:47:44;20.30;99.90
9564;DHT22;4820;50.870;4.702;2022-08-21T08:50:40;20.30;99.90
9564;DHT22;4820;50.870;4.702;2022-08-21T08:53:12;20.30;99.90
9564;DHT22;4820;50.870;4.702;2022-08-21T08:55:41;20.30;99.90
9564;DHT22;4820;50.870;4.702;2022-08-21T08:58:14;20.20;99.90
9564;DHT22;4820;50.870;4.702;2022-08-21T09:00:43;20.20;99.90
9564;DHT22;4820;50.870;4.702;2022-08-21T09:03:10;20.20;99.90
9564;DHT22;4820;50.870;4.702;2022-08-21T09:05:45;20.20;99.90
9564;DHT22;4820;50.870;4.702;2022-08-21T09:11:03;20.50;99.90
9564;DHT22;4820;50.870;4.702;2022-08-21T09:13:56;20.60;99.90
9564;DHT22;4820;50.870;4.702;2022-08-21T09:16:46;20.60;99.90
9564;DHT22;4820;50.870;4.702;2022-08-21T09:22:14;20.70;99.90
9564;DHT22;4820;50.870;4.702;2022-08-21T09:27:14;21.00;99.90
9564;DHT22;4820;50.870;4.702;2022-08-21T09:29:46;21.00;99.90
9564;DHT22;4820;50.870;4.702;2022-08-21T09:32:29;21.00;99.90
9564;DHT22;4820;50.870;4.702;2022-08-21T09:37:33;21.00;99.90
9564;DHT22;4820;50.870;4.702;2022-08-21T09:40:00;21.00;99.90
9564;DHT22;4820;50.870;4.702;2022-08-21T09:42:31;21.00;99.90
9564;DHT22;4820;50.870;4.702;2022-08-21T09:45:17;20.90;99.90
9564;DHT22;4820;50.870;4.702;2022-08-21T09:47:44;21.00;99.90
9564;DHT22;4820;50.870;4.702;2022-08-21T09:50:18;21.10;99.90
9564;DHT22;4820;50.870;4.702;2022-08-21T09:52:53;21.30;99.90
9564;DHT22;4820;50.870;4.702;2022-08-21T09:55:34;21.50;99.90
9564;DHT22;4820;50.870;4.702;2022-08-21T09:58:30;21.80;99.90
9564;DHT22;4820;50.870;4.702;2022-08-21T10:01:01;22.30;99.90
9564;DHT22;4820;50.870;4.702;2022-08-21T10:03:29;22.40;99.90
9564;DHT22;4820;50.870;4.702;2022-08-21T10:05:58;22.50;99.90
9564;DHT22;4820;50.870;4.702;2022-08-21T10:08:25;22.40;99.90
9564;DHT22;4820;50.870;4.702;2022-08-21T10:11:07;22.50;99.90
9564;DHT22;4820;50.870;4.702;2022-08-21T10:14:16;22.50;99.90
9564;DHT22;4820;50.870;4.702;2022-08-21T10:16:59;22.50;99.90
9564;DHT22;4820;50.870;4.702;2022-08-21T10:19:56;22.40;99.90
9564;DHT22;4820;50.870;4.702;2022-08-21T10:30:38;22.30;99.90
9564;DHT22;4820;50.870;4.702;2022-08-21T10:33:23;22.20;99.90
9564;DHT22;4820;50.870;4.702;2022-08-21T10:36:04;22.20;99.90
9564;DHT22;4820;50.870;4.702;2022-08-21T10:44:31;22.20;99.90
9564;DHT22;4820;50.870;4.702;2022-08-21T10:47:06;22.40;99.90
9564;DHT22;4820;50.870;4.702;2022-08-21T10:49:43;22.50;99.90
9564;DHT22;4820;50.870;4.702;2022-08-21T10:55:22;22.70;99.90
9564;DHT22;4820;50.870;4.702;2022-08-21T11:00:22;22.80;99.90
9564;DHT22;4820;50.870;4.702;2022-08-21T11:03:01;22.70;99.90
9564;DHT22;4820;50.870;4.702;2022-08-21T11:05:33;22.70;99.90
9564;DHT22;4820;50.870;4.702;2022-08-21T11:08:10;22.60;99.90
9564;DHT22;4820;50.870;4.702;2022-08-21T11:10:55;22.50;99.90
9564;DHT22;4820;50.870;4.702;2022-08-21T11:19:25;23.10;99.90
9564;DHT22;4820;50.870;4.702;2022-08-21T11:22:17;23.30;99.90
9564;DHT22;4820;50.870;4.702;2022-08-21T11:24:57;23.40;99.90
9564;DHT22;4820;50.870;4.702;2022-08-21T11:27:49;23.40;99.90
9564;DHT22;4820;50.870;4.702;2022-08-21T11:30:16;23.40;99.90
9564;DHT22;4820;50.870;4.702;2022-08-21T11:41:17;23.90;99.20
9564;DHT22;4820;50.870;4.702;2022-08-21T11:49:57;23.40;99.20
9564;DHT22;4820;50.870;4.702;2022-08-21T11:52:59;23.30;99.60
9564;DHT22;4820;50.870;4.702;2022-08-21T11:55:42;23.20;99.30
9564;DHT22;4820;50.870;4.702;2022-08-21T11:58:39;23.10;99.00
9564;DHT22;4820;50.870;4.702;2022-08-21T12:01:10;23.00;99.20
9564;DHT22;4820;50.870;4.702;2022-08-21T12:03:42;23.00;99.70
9564;DHT22;4820;50.870;4.702;2022-08-21T12:06:45;23.00;99.60
9564;DHT22;4820;50.870;4.702;2022-08-21T12:12:03;23.00;99.30
9564;DHT22;4820;50.870;4.702;2022-08-21T12:17:39;23.30;99.30
9564;DHT22;4820;50.870;4.702;2022-08-21T12:28:14;24.00;97.70
9564;DHT22;4820;50.870;4.702;2022-08-21T12:30:44;24.10;97.70
9564;DHT22;4820;50.870;4.702;2022-08-21T12:33:31;24.10;97.60
9564;DHT22;4820;50.870;4.702;2022-08-21T12:36:15;24.10;97.60
9564;DHT22;4820;50.870;4.702;2022-08-21T12:38:49;24.10;97.60
9564;DHT22;4820;50.870;4.702;2022-08-21T12:41:20;24.00;97.30
9564;DHT22;4820;50.870;4.702;2022-08-21T12:43:52;24.10;96.70
9564;DHT22;4820;50.870;4.702;2022-08-21T12:46:37;24.20;96.70
9564;DHT22;4820;50.870;4.702;2022-08-21T12:49:28;24.30;96.20
9564;DHT22;4820;50.870;4.702;2022-08-21T12:52:28;24.60;96.20
9564;DHT22;4820;50.870;4.702;2022-08-21T12:54:54;24.90;95.40
9564;DHT22;4820;50.870;4.702;2022-08-21T12:57:26;24.80;94.70
9564;DHT22;4820;50.870;4.702;2022-08-21T12:59:58;24.70;94.90
9564;DHT22;4820;50.870;4.702;2022-08-21T13:02:38;24.70;95.10
9564;DHT22;4820;50.870;4.702;2022-08-21T13:05:13;24.80;94.70
9564;DHT22;4820;50.870;4.702;2022-08-21T13:07:44;24.70;95.00
9564;DHT22;4820;50.870;4.702;2022-08-21T13:10:20;24.70;95.00
9564;DHT22;4820;50.870;4.702;2022-08-21T13:12:48;24.70;94.10
9564;DHT22;4820;50.870;4.702;2022-08-21T13:15:22;24.70;94.30
9564;DHT22;4820;50.870;4.702;2022-08-21T13:17:51;24.70;94.60
9564;DHT22;4820;50.870;4.702;2022-08-21T13:20:25;24.70;94.60
9564;DHT22;4820;50.870;4.702;2022-08-21T13:22:52;24.80;94.50
9564;DHT22;4820;50.870;4.702;2022-08-21T13:25:24;24.80;93.90
9564;DHT22;4820;50.870;4.702;2022-08-21T13:28:09;24.80;93.90
9564;DHT22;4820;50.870;4.702;2022-08-21T13:31:05;24.80;93.90
9564;DHT22;4820;50.870;4.702;2022-08-21T13:33:31;24.80;93.80
9564;DHT22;4820;50.870;4.702;2022-08-21T13:38:33;24.80;93.40
9564;DHT22;4820;50.870;4.702;2022-08-21T13:46:26;25.10;93.10
9564;DHT22;4820;50.870;4.702;2022-08-21T13:48:53;25.20;92.20
9564;DHT22;4820;50.870;4.702;2022-08-21T13:51:21;25.30;91.80
9564;DHT22;4820;50.870;4.702;2022-08-21T13:53:50;25.30;91.80
9564;DHT22;4820;50.870;4.702;2022-08-21T13:56:43;25.30;92.10
9564;DHT22;4820;50.870;4.702;2022-08-21T13:59:09;25.20;92.20
9564;DHT22;4820;50.870;4.702;2022-08-21T14:02:12;25.00;92.00
9564;DHT22;4820;50.870;4.702;2022-08-21T14:04:55;24.90;92.10
9564;DHT22;4820;50.870;4.702;2022-08-21T14:07:35;24.80;92.20
9564;DHT22;4820;50.870;4.702;2022-08-21T14:10:14;24.80;92.40
9564;DHT22;4820;50.870;4.702;2022-08-21T14:12:48;24.70;92.40
9564;DHT22;4820;50.870;4.702;2022-08-21T14:15:16;24.70;92.30
9564;DHT22;4820;50.870;4.702;2022-08-21T14:17:43;24.70;92.50
9564;DHT22;4820;50.870;4.702;2022-08-21T14:20:25;24.70;92.50
9564;DHT22;4820;50.870;4.702;2022-08-21T14:22:53;24.70;92.50
9564;DHT22;4820;50.870;4.702;2022-08-21T14:28:03;24.80;92.00
9564;DHT22;4820;50.870;4.702;2022-08-21T14:30:36;24.90;92.10
9564;DHT22;4820;50.870;4.702;2022-08-21T14:33:11;25.00;92.30
9564;DHT22;4820;50.870;4.702;2022-08-21T14:35:36;25.00;91.80
9564;DHT22;4820;50.870;4.702;2022-08-21T14:38:02;25.10;92.00
9564;DHT22;4820;50.870;4.702;2022-08-21T14:40:36;25.10;91.80
9564;DHT22;4820;50.870;4.702;2022-08-21T14:43:04;25.20;91.60
9564;DHT22;4820;50.870;4.702;2022-08-21T14:45:31;25.30;91.60
9564;DHT22;4820;50.870;4.702;2022-08-21T14:47:58;25.30;91.50
9564;DHT22;4820;50.870;4.702;2022-08-21T14:50:25;25.20;91.50
9564;DHT22;4820;50.870;4.702;2022-08-21T14:52:51;25.20;91.80
9564;DHT22;4820;50.870;4.702;2022-08-21T14:55:19;25.20;91.90
9564;DHT22;4820;50.870;4.702;2022-08-21T14:57:48;25.10;92.00
9564;DHT22;4820;50.870;4.702;2022-08-21T15:00:17;25.10;92.20
9564;DHT22;4820;50.870;4.702;2022-08-21T15:02:44;25.00;91.80
9564;DHT22;4820;50.870;4.702;2022-08-21T15:05:10;25.00;91.90
9564;DHT22;4820;50.870;4.702;2022-08-21T15:07:37;24.90;91.90
9564;DHT22;4820;50.870;4.702;2022-08-21T15:10:04;24.90;91.70
9564;DHT22;4820;50.870;4.702;2022-08-21T15:12:30;24.90;91.90
9564;DHT22;4820;50.870;4.702;2022-08-21T15:14:57;24.80;92.00
9564;DHT22;4820;50.870;4.702;2022-08-21T15:17:24;24.80;92.30
9564;DHT22;4820;50.870;4.702;2022-08-21T15:19:53;24.80;92.40
9564;DHT22;4820;50.870;4.702;2022-08-21T15:22:19;24.70;92.10
9564;DHT22;4820;50.870;4.702;2022-08-21T15:24:44;24.80;92.10
9564;DHT22;4820;50.870;4.702;2022-08-21T15:27:18;24.90;92.20
9564;DHT22;4820;50.870;4.702;2022-08-21T15:29:48;25.00;92.50
9564;DHT22;4820;50.870;4.702;2022-08-21T15:32:24;25.00;92.20
9564;DHT22;4820;50.870;4.702;2022-08-21T15:34:53;25.10;92.30
9564;DHT22;4820;50.870;4.702;2022-08-21T15:37:19;25.10;92.40
9564;DHT22;4820;50.870;4.702;2022-08-21T15:39:45;25.10;92.30
9564;DHT22;4820;50.870;4.702;2022-08-21T15:42:13;25.10;92.50
9564;DHT22;4820;50.870;4.702;2022-08-21T15:44:39;25.00;92.50
9564;DHT22;4820;50.870;4.702;2022-08-21T15:47:06;24.90;92.30
9564;DHT22;4820;50.870;4.702;2022-08-21T15:49:32;24.90;92.30
9564;DHT22;4820;50.870;4.702;2022-08-21T15:51:57;24.90;92.30
9564;DHT22;4820;50.870;4.702;2022-08-21T15:54:23;24.90;92.40
9564;DHT22;4820;50.870;4.702;2022-08-21T15:56:50;24.90;92.80
9564;DHT22;4820;50.870;4.702;2022-08-21T15:59:19;24.80;93.00
9564;DHT22;4820;50.870;4.702;2022-08-21T16:01:50;24.70;93.30
9564;DHT22;4820;50.870;4.702;2022-08-21T16:04:25;24.70;93.50
9564;DHT22;4820;50.870;4.702;2022-08-21T16:06:51;24.70;93.40
9564;DHT22;4820;50.870;4.702;2022-08-21T16:09:17;24.70;93.50
9564;DHT22;4820;50.870;4.702;2022-08-21T16:11:44;24.60;93.60
9564;DHT22;4820;50.870;4.702;2022-08-21T16:14:14;24.60;93.60
9564;DHT22;4820;50.870;4.702;2022-08-21T16:16:42;24.50;93.30
9564;DHT22;4820;50.870;4.702;2022-08-21T16:19:09;24.30;93.60
9564;DHT22;4820;50.870;4.702;2022-08-21T16:21:36;24.20;94.00
9564;DHT22;4820;50.870;4.702;2022-08-21T16:24:03;24.10;94.00
9564;DHT22;4820;50.870;4.702;2022-08-21T16:26:29;24.00;94.20
9564;DHT22;4820;50.870;4.702;2022-08-21T16:28:58;24.00;94.20
9564;DHT22;4820;50.870;4.702;2022-08-21T16:31:25;24.00;94.30
9564;DHT22;4820;50.870;4.702;2022-08-21T16:33:53;24.00;94.30
9564;DHT22;4820;50.870;4.702;2022-08-21T16:36:19;23.90;94.40
9564;DHT22;4820;50.870;4.702;2022-08-21T16:38:47;23.90;94.50
9564;DHT22;4820;50.870;4.702;2022-08-21T16:41:16;24.00;94.30
9564;DHT22;4820;50.870;4.702;2022-08-21T16:43:44;24.00;94.40
9564;DHT22;4820;50.870;4.702;2022-08-21T16:46:12;24.00;94.30
9564;DHT22;4820;50.870;4.702;2022-08-21T16:48:42;24.10;94.10
9564;DHT22;4820;50.870;4.702;2022-08-21T16:51:14;24.00;94.20
9564;DHT22;4820;50.870;4.702;2022-08-21T16:53:40;24.00;94.20
9564;DHT22;4820;50.870;4.702;2022-08-21T16:56:08;23.90;94.40
9564;DHT22;4820;50.870;4.702;2022-08-21T16:58:36;23.80;94.80
9564;DHT22;4820;50.870;4.702;2022-08-21T17:01:10;23.80;95.00
9564;DHT22;4820;50.870;4.702;2022-08-21T17:03:39;23.80;94.90
9564;DHT22;4820;50.870;4.702;2022-08-21T17:06:08;23.70;94.90
9564;DHT22;4820;50.870;4.702;2022-08-21T17:08:34;23.70;95.10
9564;DHT22;4820;50.870;4.702;2022-08-21T17:11:00;23.60;95.20
9564;DHT22;4820;50.870;4.702;2022-08-21T17:13:27;23.60;95.10
9564;DHT22;4820;50.870;4.702;2022-08-21T17:15:57;23.60;95.20
9564;DHT22;4820;50.870;4.702;2022-08-21T17:18:24;23.50;95.20
9564;DHT22;4820;50.870;4.702;2022-08-21T17:20:50;23.50;95.30
9564;DHT22;4820;50.870;4.702;2022-08-21T17:23:17;23.50;95.40
9564;DHT22;4820;50.870;4.702;2022-08-21T17:25:50;23.50;95.40
9564;DHT22;4820;50.870;4.702;2022-08-21T17:28:22;23.40;95.40
9564;DHT22;4820;50.870;4.702;2022-08-21T17:30:51;23.50;95.30
9564;DHT22;4820;50.870;4.702;2022-08-21T17:33:18;23.60;95.50
9564;DHT22;4820;50.870;4.702;2022-08-21T17:35:45;23.60;95.40
9564;DHT22;4820;50.870;4.702;2022-08-21T17:38:12;23.60;95.40